Thursday, May 24, 2018, 4:29 AM GMT
Back to Local

CYQI, Yarmouth, N. S.

Location: , , Canada Lat: 43.833
Local Time: 4:29 AM GMT ( 4:29 GMT) Lon: -66.083
Time Zone: GMT Elev: 141 ft

Show me the last for .
Show Decoded

2018-05-24 04:00 METAR CYQI 240400Z 03010KT 15SM SCT015 SCT170 06/04 A2997 RMK SC3AS1 SLP151 =
2018-05-24 03:00 METAR CYQI 240300Z 36007KT 15SM FEW250 06/04 A2997 RMK CI2 SLP151 =
2018-05-24 02:00 METAR CYQI 240200Z 01010G16KT 15SM SKC 07/05 A2995 RMK SLP146 =
2018-05-24 01:00 METAR CYQI 240100Z 01012KT 15SM FEW065 FEW250 09/06 A2994 RMK SC1CI2 SC TR
                 SLP142 =
2018-05-24 00:00 METAR CYQI 240000Z 36017KT 15SM BKN060 BKN250 11/07 A2990 RMK SC6CI1 CI TR
                 SLP129 =
2018-05-23 23:00 METAR CYQI 232300Z 33012G18KT 15SM SCT042 BKN250 10/08 A2988 RMK SC3CI2 SLP122 =
2018-05-23 22:00 METAR CYQI 232200Z 33011KT 12SM FEW006 SCT045 BKN120 BKN250 11/09 A2985 RMK
                 SF1SC3AC2CI1 PRESRR SLP111 =
2018-05-23 21:26 METAR CYQI 232126Z 31013KT 8SM SCT006 BKN038 10/09 A2986 RMK SF4SC3 SLP113 =
2018-05-23 21:00 METAR CYQI 232100Z 32012G18KT 4SM BR OVC003 10/09 A2986 RMK SF8 SLP113 =
2018-05-23 20:34 METAR CYQI 232034Z 32019KT 1SM BR VV004 10/08 A2986 RMK FG8 PRESRR SLP114 =
2018-05-23 20:29 METAR CYQI 232029Z 31014KT 260V330 2SM BR BKN007 OVC250 11/09 A2984 RMK SF7CI1
                 PRESRR SLP108 =
2018-05-23 20:00 METAR CYQI 232000Z 26007KT 12SM SCT035 BKN250 12/09 A2980 RMK SC3CI2 SLP095 =
2018-05-23 19:00 METAR CYQI 231900Z 29010KT 15SM SCT009 BKN250 13/10 A2980 RMK CF3CI3 SLP095 =
2018-05-23 18:00 METAR CYQI 231800Z 28010KT 15SM SCT009 BKN025 BKN250 13/10 A2981 RMK CF3SC2CI2
                 SLP097 =
2018-05-23 17:00 METAR CYQI 231700Z 28010G16KT 15SM SCT025 BKN250 14/10 A2981 RMK SC4CI2 SLP095
                 DENSITY ALT 200FT =
2018-05-23 16:00 METAR CYQI 231600Z 28011KT 15SM BKN031 14/10 A2982 RMK SC7 SLP100 DENSITY ALT
                 200FT =
2018-05-23 15:00 METAR CYQI 231500Z 28007KT 15SM SCT028 BKN050 13/10 A2983 RMK SC4SC3 SLP105 =
2018-05-23 14:00 METAR CYQI 231400Z 28008KT 15SM BKN048 11/09 A2983 RMK SC7 SLP103 =
2018-05-23 13:00 METAR CYQI 231300Z 28008KT 12SM OVC050 11/09 A2984 RMK SC8 SLP108 =
2018-05-23 12:00 METAR CYQI 231200Z 27007KT 12SM OVC037 11/09 A2986 RMK SC8 SLP114 =
2018-05-23 11:00 METAR CYQI 231100Z 20005KT 12SM FEW050 BKN071 OVC120 11/09 A2986 RMK SC2AC5AS1
                 SLP114 =
2018-05-23 10:00 METAR CYQI 231000Z 20004KT 12SM OVC043 10/08 A2988 RMK SC8 SLP121 =
2018-05-23 09:00 METAR CYQI 230900Z 16003KT 12SM FEW026 OVC054 10/07 A2989 RMK SF1SC7 SLP125 =
2018-05-23 08:00 METAR CYQI 230800Z 17006KT 12SM SCT029 OVC061 10/07 A2990 RMK SC3NS5 SLP129 =
2018-05-23 07:00 METAR CYQI 230700Z 16006KT 9SM FEW028 BKN033 OVC069 10/08 A2993 RMK SF2SC3AS3
                 SLP137 =
2018-05-23 06:00 METAR CYQI 230600Z 16004KT 9SM OVC074 10/08 A2995 RMK AS8 SLP143 =
2018-05-23 05:00 METAR CYQI 230500Z 22005KT 9SM OVC090 10/08 A2998 RMK AS8 SLP153 =
2018-05-23 04:47 METAR CYQI 230447Z 19006KT 9SM OVC090 10/08 A2998 RMK AS8 PRESFR SLP155 =

Support USWX by starting your Amazon purchase here.